Time;durP1;ratioP1;P1;durP2;ratioP2;P2;SDS_P1;SDS_P2;PMS_P1;PMS_P2;Temp;Humidity;BMP_temperature;BMP_pressure;BME280_temperature;BME280_humidity;BME280_pressure;Samples;Min_cycle;Max_cycle;Signal;HPM_P1;HPM_P2
2021/09/20 00:02:50;;;;;;;7.80;7.10;;;17.20;36.70;;;;;;10415897;28;20240;-72
2021/09/20 00:07:53;;;;;;;6.40;5.90;;;17.20;36.80;;;;;;10414466;28;20221;-72
2021/09/20 00:12:56;;;;;;;6.57;6.07;;;17.10;36.60;;;;;;10416183;28;20561;-72
2021/09/20 00:18:01;;;;;;;7.00;6.50;;;17.10;37.40;;;;;;10420152;28;20235;-72
2021/09/20 00:23:04;;;;;;;7.43;6.90;;;17.10;37.00;;;;;;10416812;28;20239;-72
2021/09/20 00:28:08;;;;;;;7.87;7.17;;;17.10;36.80;;;;;;10417066;28;20767;-72
2021/09/20 00:33:13;;;;;;;7.90;7.20;;;17.00;36.70;;;;;;10412419;28;20757;-72
2021/09/20 00:38:16;;;;;;;7.83;7.23;;;17.00;37.00;;;;;;10417172;28;20226;-72
2021/09/20 00:43:19;;;;;;;7.93;7.33;;;17.10;36.90;;;;;;10427317;28;20228;-72
2021/09/20 00:48:24;;;;;;;8.20;7.50;;;17.10;36.70;;;;;;10413767;28;20232;-72
2021/09/20 00:53:27;;;;;;;8.30;7.70;;;17.10;37.00;;;;;;10421543;28;20333;-72
2021/09/20 00:58:31;;;;;;;8.80;8.10;;;17.10;36.60;;;;;;10424921;28;20234;-72
2021/09/20 01:03:35;;;;;;;7.80;7.20;;;17.00;36.70;;;;;;10423310;28;20244;-72
2021/09/20 01:08:39;;;;;;;7.87;7.27;;;17.00;37.00;;;;;;10416153;28;20295;-72
2021/09/20 01:13:42;;;;;;;7.50;6.90;;;16.90;36.80;;;;;;10423802;28;20221;-72
2021/09/20 01:18:47;;;;;;;7.90;7.20;;;16.90;36.90;;;;;;10420748;28;20420;-72
2021/09/20 01:23:51;;;;;;;7.70;7.07;;;16.90;37.30;;;;;;10415150;28;20236;-72
2021/09/20 01:28:55;;;;;;;7.13;6.60;;;16.90;37.20;;;;;;10420666;28;20221;-72
2021/09/20 01:33:58;;;;;;;8.03;7.30;;;16.90;37.10;;;;;;10417154;28;20513;-72
2021/09/20 01:39:03;;;;;;;7.77;7.17;;;16.90;37.20;;;;;;10420702;28;20263;-72
2021/09/20 01:44:06;;;;;;;7.83;7.13;;;16.80;37.20;;;;;;10418447;28;20307;-72
2021/09/20 01:49:09;;;;;;;8.23;7.47;;;16.80;37.10;;;;;;10418013;28;20247;-72
2021/09/20 01:54:14;;;;;;;8.13;7.43;;;16.80;36.90;;;;;;10420764;28;20221;-72
2021/09/20 01:59:18;;;;;;;7.43;6.83;;;16.80;37.30;;;;;;10422749;28;20259;-72
2021/09/20 02:04:21;;;;;;;7.33;6.73;;;16.70;37.00;;;;;;10417689;28;20563;-72
2021/09/20 02:09:26;;;;;;;7.40;6.80;;;16.70;37.20;;;;;;10412120;28;20616;-72
2021/09/20 02:14:29;;;;;;;6.27;5.80;;;16.70;37.40;;;;;;10418800;28;20220;-72
2021/09/20 02:19:32;;;;;;;7.07;6.53;;;16.70;37.30;;;;;;10421530;28;20233;-72
2021/09/20 02:24:37;;;;;;;6.97;6.37;;;16.70;37.40;;;;;;10413206;28;20230;-72
2021/09/20 02:29:40;;;;;;;7.00;6.50;;;16.70;37.40;;;;;;10418973;28;20228;-72
2021/09/20 02:34:44;;;;;;;6.13;5.63;;;16.70;37.40;;;;;;10421434;28;20228;-72
2021/09/20 02:39:53;;;;;;;6.67;6.07;;;16.70;37.40;;;;;;10417451;28;20636;-72
2021/09/20 02:44:56;;;;;;;7.13;6.50;;;16.70;37.60;;;;;;10415231;28;20229;-72
2021/09/20 02:49:59;;;;;;;7.10;6.57;;;16.70;37.50;;;;;;10413383;28;20239;-72
2021/09/20 02:55:05;;;;;;;6.63;6.13;;;16.80;37.60;;;;;;10417117;28;20675;-71
2021/09/20 03:00:11;;;;;;;6.70;6.20;;;16.70;37.60;;;;;;10415386;28;20588;-72
2021/09/20 03:05:14;;;;;;;7.33;6.73;;;16.70;37.60;;;;;;10419751;28;21054;-72
2021/09/20 03:10:19;;;;;;;7.43;6.73;;;16.70;37.50;;;;;;10411965;28;20234;-72
2021/09/20 03:15:23;;;;;;;7.67;7.07;;;16.80;37.80;;;;;;10413476;28;20772;-72
2021/09/20 03:20:26;;;;;;;7.57;6.97;;;16.80;37.70;;;;;;10414105;28;20237;-72
2021/09/20 03:25:31;;;;;;;8.03;7.33;;;16.70;37.70;;;;;;10418885;28;20228;-72
2021/09/20 03:30:34;;;;;;;7.27;6.67;;;16.80;38.00;;;;;;10414889;28;20257;-72
2021/09/20 03:35:38;;;;;;;7.50;6.80;;;16.80;38.10;;;;;;10414264;28;20782;-72
2021/09/20 03:40:42;;;;;;;7.10;6.60;;;16.70;38.10;;;;;;10411546;28;20618;-72
2021/09/20 03:45:45;;;;;;;7.60;7.00;;;16.70;38.30;;;;;;10412676;28;20657;-72
2021/09/20 03:50:49;;;;;;;8.60;7.80;;;16.70;38.00;;;;;;10413645;28;20309;-72
2021/09/20 03:55:53;;;;;;;7.50;6.97;;;16.70;38.10;;;;;;10414076;28;20229;-72
2021/09/20 04:00:56;;;;;;;8.30;7.50;;;16.60;38.40;;;;;;10416149;28;20231;-72
2021/09/20 04:06:00;;;;;;;8.07;7.37;;;16.60;38.30;;;;;;10419166;28;20735;-72
2021/09/20 04:11:05;;;;;;;8.03;7.43;;;16.60;38.40;;;;;;10421308;28;20426;-71
2021/09/20 04:16:08;;;;;;;8.47;7.80;;;16.50;38.70;;;;;;10420046;28;20225;-72
2021/09/20 04:21:11;;;;;;;8.10;7.40;;;16.50;38.50;;;;;;10422303;28;20225;-72
2021/09/20 04:26:16;;;;;;;7.87;7.27;;;16.50;38.60;;;;;;10423756;28;20525;-71
2021/09/20 04:31:19;;;;;;;8.27;7.57;;;16.50;38.80;;;;;;10419117;28;20317;-72
2021/09/20 04:36:22;;;;;;;8.20;7.60;;;16.50;38.50;;;;;;10428673;28;20225;-72
2021/09/20 04:41:27;;;;;;;7.83;7.23;;;16.40;38.50;;;;;;10421586;28;20230;-72
2021/09/20 04:46:30;;;;;;;8.57;7.87;;;16.40;38.90;;;;;;10419829;28;20713;-72
2021/09/20 04:51:33;;;;;;;9.20;8.40;;;16.30;38.60;;;;;;10420492;28;20244;-72
2021/09/20 04:56:38;;;;;;;9.00;8.20;;;16.30;38.70;;;;;;10416896;28;20867;-73
2021/09/20 05:01:41;;;;;;;8.67;8.07;;;16.30;39.20;;;;;;10419626;28;20404;-72
2021/09/20 05:06:45;;;;;;;8.70;7.97;;;16.30;38.90;;;;;;10412886;28;20229;-72
2021/09/20 05:11:49;;;;;;;9.37;8.03;;;16.20;38.60;;;;;;10418893;28;20236;-73
2021/09/20 05:16:53;;;;;;;9.07;8.37;;;16.20;39.90;;;;;;10434290;28;20811;-73
2021/09/20 05:21:56;;;;;;;9.57;8.73;;;16.20;38.60;;;;;;10437743;28;20245;-73
2021/09/20 05:27:01;;;;;;;9.90;9.10;;;16.20;38.20;;;;;;10433855;28;20905;-73
2021/09/20 05:32:05;;;;;;;10.03;9.20;;;16.20;38.30;;;;;;10439505;28;20228;-73
2021/09/20 05:37:08;;;;;;;10.00;9.10;;;16.20;38.30;;;;;;10439101;28;20251;-73
2021/09/20 05:42:15;;;;;;;9.70;8.80;;;16.20;38.40;;;;;;10438709;28;20233;-73
2021/09/20 05:47:19;;;;;;;9.30;8.50;;;16.20;38.60;;;;;;10434744;28;20253;-73
2021/09/20 05:52:23;;;;;;;10.27;9.37;;;16.30;38.50;;;;;;10428339;28;20321;-73
2021/09/20 05:57:27;;;;;;;9.73;8.93;;;16.30;38.50;;;;;;10428168;28;20728;-73
2021/09/20 06:02:30;;;;;;;10.00;9.20;;;16.30;38.60;;;;;;10435040;28;20229;-73
2021/09/20 06:07:34;;;;;;;11.07;10.13;;;16.30;38.40;;;;;;10428916;28;20649;-73
2021/09/20 06:12:39;;;;;;;11.10;10.10;;;16.30;38.40;;;;;;10439269;28;20233;-74
2021/09/20 06:17:43;;;;;;;10.50;9.60;;;16.30;38.50;;;;;;10437327;28;20252;-72
2021/09/20 06:22:46;;;;;;;10.23;9.27;;;16.40;38.50;;;;;;10428587;28;20225;-73
2021/09/20 06:27:51;;;;;;;9.93;9.17;;;16.40;38.40;;;;;;10438338;28;20708;-73
2021/09/20 06:32:54;;;;;;;10.80;9.87;;;16.30;38.40;;;;;;10436665;28;20224;-73
2021/09/20 06:37:57;;;;;;;11.03;9.93;;;16.40;38.30;;;;;;10435064;28;20339;-72
2021/09/20 06:43:03;;;;;;;10.57;9.67;;;16.40;38.30;;;;;;10438178;28;20250;-73
2021/09/20 06:48:06;;;;;;;11.27;10.30;;;16.40;38.40;;;;;;10445206;28;20221;-71
2021/09/20 06:53:10;;;;;;;11.10;10.13;;;16.40;38.30;;;;;;10433140;28;20229;-73
2021/09/20 06:58:14;;;;;;;11.30;10.30;;;16.50;38.30;;;;;;10433527;28;20221;-71
2021/09/20 07:03:17;;;;;;;10.60;9.70;;;16.50;38.50;;;;;;10428705;28;20228;-72
2021/09/20 07:08:21;;;;;;;11.77;10.57;;;16.50;38.30;;;;;;10428044;28;20305;-72
2021/09/20 07:13:26;;;;;;;11.23;10.30;;;16.50;38.40;;;;;;10431513;28;20239;-72
2021/09/20 07:18:29;;;;;;;11.10;10.20;;;16.50;38.50;;;;;;10433140;28;20700;-72
2021/09/20 07:23:32;;;;;;;11.30;10.30;;;16.50;38.60;;;;;;10429222;28;20274;-73
2021/09/20 07:28:37;;;;;;;11.30;10.40;;;16.50;38.50;;;;;;10422207;28;20225;-72
2021/09/20 07:33:40;;;;;;;11.87;10.87;;;16.60;38.70;;;;;;10429497;28;20922;-72
2021/09/20 07:38:43;;;;;;;12.70;11.60;;;16.60;38.70;;;;;;10426264;28;20228;-72
2021/09/20 07:43:48;;;;;;;12.87;11.67;;;16.60;38.50;;;;;;10429529;28;20232;-72
2021/09/20 07:48:52;;;;;;;13.40;12.10;;;16.70;38.60;;;;;;10425829;28;20368;-73
2021/09/20 07:53:55;;;;;;;12.27;11.27;;;16.70;38.40;;;;;;10424840;28;20769;-73
2021/09/20 07:59:00;;;;;;;12.57;11.47;;;16.70;38.30;;;;;;10440273;28;20225;-72
2021/09/20 08:04:03;;;;;;;12.23;11.23;;;16.70;38.50;;;;;;10443863;28;20236;-73
2021/09/20 08:09:06;;;;;;;13.63;12.33;;;16.70;38.30;;;;;;10443813;28;20227;-73
2021/09/20 08:14:11;;;;;;;14.53;13.13;;;16.70;38.20;;;;;;10440448;28;20615;-73
2021/09/20 08:19:14;;;;;;;14.10;12.80;;;16.70;38.20;;;;;;10439556;28;20225;-72
2021/09/20 08:24:18;;;;;;;14.37;13.13;;;16.80;38.30;;;;;;10436557;28;20229;-73
2021/09/20 08:29:23;;;;;;;14.40;13.10;;;16.80;38.20;;;;;;10440910;28;20227;-72
2021/09/20 08:34:26;;;;;;;13.30;12.17;;;16.80;38.20;;;;;;10438428;28;20221;-72
2021/09/20 08:39:29;;;;;;;13.70;12.53;;;16.80;38.20;;;;;;10430179;28;20880;-72
2021/09/20 08:44:34;;;;;;;13.80;12.60;;;16.90;38.20;;;;;;10435804;28;20225;-73
2021/09/20 08:49:40;;;;;;;11.00;10.10;;;16.90;38.20;;;;;;10433112;28;20777;-72
2021/09/20 08:54:46;;;;;;;11.43;10.43;;;16.90;37.80;;;;;;10444576;28;20221;-73
2021/09/20 08:59:50;;;;;;;10.63;9.63;;;16.90;37.80;;;;;;10448918;28;20328;-72
2021/09/20 09:04:53;;;;;;;10.27;9.37;;;16.90;37.60;;;;;;10442606;28;20732;-71
2021/09/20 09:09:57;;;;;;;9.13;8.43;;;16.90;37.80;;;;;;10452234;28;20461;-72
2021/09/20 09:15:04;;;;;;;10.93;10.03;;;16.90;37.60;;;;;;10437736;28;20232;-72
2021/09/20 09:20:10;;;;;;;9.33;8.60;;;16.90;37.70;;;;;;10446845;28;20229;-71
2021/09/20 09:25:18;;;;;;;9.10;8.37;;;17.00;37.40;;;;;;10440158;28;20235;-71
2021/09/20 09:30:24;;;;;;;8.10;7.50;;;17.00;37.30;;;;;;10437169;28;20240;-73
2021/09/20 09:35:31;;;;;;;8.70;7.90;;;17.00;37.30;;;;;;10440560;28;20235;-72
2021/09/20 09:40:46;;;;;;;8.10;7.40;;;17.10;37.50;;;;;;10444974;28;20229;-70
2021/09/20 09:45:51;;;;;;;7.17;6.57;;;17.10;37.10;;;;;;10440021;28;20236;-70
2021/09/20 09:50:57;;;;;;;7.33;6.73;;;17.20;37.20;;;;;;10432664;28;20225;-70
2021/09/20 09:56:02;;;;;;;6.80;6.20;;;17.20;37.10;;;;;;10439468;28;20220;-70
2021/09/20 10:01:28;;;;;;;6.13;5.57;;;17.20;37.00;;;;;;10443934;28;20798;-71
2021/09/20 10:06:40;;;;;;;6.83;6.23;;;17.30;36.60;;;;;;10461463;28;20308;-70
2021/09/20 10:11:45;;;;;;;6.27;5.77;;;17.30;36.40;;;;;;10430008;28;20304;-73
2021/09/20 10:16:52;;;;;;;6.00;5.47;;;17.40;36.60;;;;;;10426074;28;20224;-73
2021/09/20 10:21:55;;;;;;;6.53;6.03;;;17.40;36.00;;;;;;10432670;28;20705;-73
2021/09/20 10:26:58;;;;;;;6.10;5.60;;;17.40;36.30;;;;;;10430415;28;20225;-73
2021/09/20 10:32:04;;;;;;;5.50;5.00;;;17.50;36.40;;;;;;10442187;28;20213;-72
2021/09/20 10:37:11;;;;;;;4.83;4.43;;;17.50;35.30;;;;;;10435320;28;20229;-72
2021/09/20 10:42:47;;;;;;;5.20;4.80;;;17.50;35.50;;;;;;10434919;28;20671;-71
2021/09/20 10:47:52;;;;;;;5.27;4.87;;;17.60;35.10;;;;;;10440167;28;20228;-71
2021/09/20 10:53:16;;;;;;;5.20;4.80;;;17.70;36.40;;;;;;10437212;28;20260;-71
2021/09/20 10:58:19;;;;;;;5.00;4.60;;;17.80;35.20;;;;;;10437797;28;20228;-71
2021/09/20 11:03:41;;;;;;;5.40;4.90;;;17.80;36.00;;;;;;10443850;28;20239;-71
2021/09/20 11:08:45;;;;;;;5.03;4.63;;;17.90;34.70;;;;;;10442676;28;20316;-71
2021/09/20 11:14:01;;;;;;;4.10;3.80;;;18.00;35.50;;;;;;10441280;28;20240;-71
2021/09/20 11:19:41;;;;;;;4.93;4.53;;;18.10;34.80;;;;;;10445785;28;20212;-71
2021/09/20 11:24:46;;;;;;;5.00;4.50;;;18.10;34.80;;;;;;10436626;28;20740;-70
2021/09/20 11:29:52;;;;;;;4.93;4.53;;;18.30;35.00;;;;;;10444818;28;20244;-71
2021/09/20 11:34:58;;;;;;;5.07;4.67;;;18.30;35.00;;;;;;10425419;28;20304;-72
2021/09/20 11:40:05;;;;;;;5.10;4.70;;;18.40;35.10;;;;;;10430274;28;20738;-72
2021/09/20 11:45:12;;;;;;;5.93;5.43;;;18.40;35.10;;;;;;10423182;28;20231;-72
2021/09/20 11:50:19;;;;;;;5.03;4.63;;;18.50;35.20;;;;;;10424661;28;20228;-71
2021/09/20 11:55:24;;;;;;;5.40;5.00;;;18.50;35.20;;;;;;10420723;28;20237;-72
2021/09/20 12:00:30;;;;;;;5.60;5.17;;;18.50;35.20;;;;;;10416919;28;20243;-72
2021/09/20 12:05:37;;;;;;;5.53;5.13;;;18.60;34.70;;;;;;10415021;28;20246;-72
2021/09/20 12:10:42;;;;;;;5.10;4.70;;;18.70;34.20;;;;;;10423279;28;20239;-71
2021/09/20 12:15:47;;;;;;;4.97;4.57;;;18.70;34.60;;;;;;10422825;28;20237;-71
2021/09/20 12:20:56;;;;;;;5.47;5.00;;;18.70;34.40;;;;;;10428523;28;20225;-72
2021/09/20 12:26:01;;;;;;;6.50;5.90;;;18.80;33.90;;;;;;10435831;28;20316;-72
2021/09/20 12:31:06;;;;;;;6.23;5.73;;;18.90;34.30;;;;;;10437552;28;20226;-71
2021/09/20 12:36:19;;;;;;;5.87;5.47;;;19.00;34.50;;;;;;10457052;28;20323;-73
2021/09/20 12:41:23;;;;;;;6.07;5.57;;;19.00;33.90;;;;;;10439074;28;20232;-72
2021/09/20 12:46:28;;;;;;;6.67;6.17;;;19.10;34.30;;;;;;10443612;28;20256;-73
2021/09/20 12:51:38;;;;;;;6.73;6.13;;;19.10;34.10;;;;;;10442287;28;20771;-73
2021/09/20 12:56:41;;;;;;;5.80;5.23;;;19.10;33.50;;;;;;10438816;28;20221;-73
2021/09/20 13:01:47;;;;;;;5.20;4.70;;;19.10;34.30;;;;;;10464777;28;20235;-72
2021/09/20 13:07:03;;;;;;;4.33;4.03;;;19.20;34.00;;;;;;10469602;28;20244;-73
2021/09/20 13:12:10;;;;;;;4.30;3.90;;;19.20;33.40;;;;;;10457633;28;20224;-72
2021/09/20 13:17:18;;;;;;;4.07;3.77;;;19.30;33.60;;;;;;10466839;28;20739;-73
2021/09/20 13:22:23;;;;;;;3.70;3.50;;;19.40;33.90;;;;;;10453892;28;20756;-73
2021/09/20 13:27:26;;;;;;;3.60;3.30;;;19.40;33.30;;;;;;10442258;28;20237;-72
2021/09/20 13:32:30;;;;;;;3.77;3.47;;;19.50;33.60;;;;;;10451124;28;20235;-72
2021/09/20 13:37:34;;;;;;;3.60;3.40;;;19.60;33.50;;;;;;10455021;28;20262;-72
2021/09/20 13:42:38;;;;;;;3.90;3.60;;;19.60;33.20;;;;;;10445862;28;20261;-72
2021/09/20 13:47:42;;;;;;;3.83;3.53;;;19.60;33.40;;;;;;10436976;28;20745;-72
2021/09/20 13:52:46;;;;;;;3.80;3.50;;;19.70;33.20;;;;;;10441057;28;20245;-71
2021/09/20 13:57:50;;;;;;;3.80;3.53;;;19.70;32.80;;;;;;10442709;28;20225;-71
2021/09/20 14:02:53;;;;;;;4.37;4.07;;;19.70;33.20;;;;;;10441225;28;20263;-72
2021/09/20 14:07:58;;;;;;;4.03;3.73;;;19.80;33.20;;;;;;10436115;28;20572;-71
2021/09/20 14:13:01;;;;;;;3.70;3.40;;;19.80;33.20;;;;;;10439394;28;20225;-71
2021/09/20 14:18:05;;;;;;;3.83;3.40;;;19.80;32.90;;;;;;10442631;28;20232;-72
2021/09/20 14:23:10;;;;;;;3.33;3.13;;;19.80;33.00;;;;;;10439183;28;20268;-72
2021/09/20 14:28:17;;;;;;;3.40;3.20;;;19.80;32.50;;;;;;10438698;28;20229;-72
2021/09/20 14:33:20;;;;;;;3.90;3.50;;;19.80;32.80;;;;;;10440164;28;20255;-72
2021/09/20 14:38:24;;;;;;;3.20;3.00;;;19.90;32.90;;;;;;10442597;28;20221;-73
2021/09/20 14:43:28;;;;;;;3.70;3.40;;;20.00;32.50;;;;;;10444422;28;20427;-72
2021/09/20 14:48:31;;;;;;;3.70;3.40;;;20.00;32.60;;;;;;10444118;28;20233;-73
2021/09/20 14:53:35;;;;;;;3.80;3.50;;;20.00;32.50;;;;;;10441181;28;20239;-72
2021/09/20 14:58:40;;;;;;;3.73;3.43;;;20.00;32.10;;;;;;10436967;28;20228;-74
2021/09/20 15:03:44;;;;;;;3.33;3.13;;;20.10;32.40;;;;;;10434808;28;20261;-72
2021/09/20 15:08:49;;;;;;;3.70;3.40;;;20.00;31.90;;;;;;10432317;28;20233;-72
2021/09/20 15:13:52;;;;;;;3.57;3.00;;;20.00;31.80;;;;;;10429496;28;20225;-72
2021/09/20 15:18:57;;;;;;;3.17;2.97;;;20.00;32.40;;;;;;10428411;28;20232;-73
2021/09/20 15:24:01;;;;;;;3.27;2.97;;;20.10;32.50;;;;;;10428018;28;20240;-72
2021/09/20 15:29:06;;;;;;;3.03;2.83;;;20.20;32.40;;;;;;10437263;28;20221;-73
2021/09/20 15:34:10;;;;;;;3.77;3.37;;;20.20;32.50;;;;;;10447433;28;20225;-72
2021/09/20 15:39:14;;;;;;;3.40;3.10;;;20.30;32.50;;;;;;10446066;28;20700;-72
2021/09/20 15:44:18;;;;;;;3.47;3.27;;;20.30;32.00;;;;;;10438329;28;20594;-73
2021/09/20 15:49:21;;;;;;;3.27;3.07;;;20.40;32.20;;;;;;10442758;28;20227;-71
2021/09/20 15:54:26;;;;;;;3.17;2.90;;;20.40;32.30;;;;;;10429568;28;20228;-72
2021/09/20 15:59:29;;;;;;;3.67;3.37;;;20.40;32.00;;;;;;10428509;28;20609;-72
2021/09/20 16:04:32;;;;;;;3.37;3.17;;;20.50;32.50;;;;;;10432009;28;20239;-72
2021/09/20 16:09:41;;;;;;;4.07;3.63;;;20.50;32.50;;;;;;10441980;28;20225;-72
2021/09/20 16:14:44;;;;;;;3.60;3.30;;;20.60;32.20;;;;;;10434313;28;20247;-73
2021/09/20 16:19:48;;;;;;;3.43;3.20;;;20.50;32.20;;;;;;10435758;28;20233;-73
2021/09/20 16:24:53;;;;;;;3.63;3.33;;;20.60;32.30;;;;;;10443121;28;20230;-74
2021/09/20 16:29:56;;;;;;;4.00;3.70;;;20.60;31.90;;;;;;10438883;28;20321;-74
2021/09/20 16:34:59;;;;;;;3.90;3.43;;;20.60;32.20;;;;;;10447919;28;20228;-73
2021/09/20 16:40:05;;;;;;;4.00;3.70;;;20.50;32.30;;;;;;10445030;28;20228;-74
2021/09/20 16:45:10;;;;;;;3.57;3.27;;;20.50;31.90;;;;;;10444413;28;20232;-73
2021/09/20 16:50:14;;;;;;;4.37;3.63;;;20.50;32.10;;;;;;10442070;28;20595;-73
2021/09/20 16:55:18;;;;;;;3.63;3.40;;;20.50;32.10;;;;;;10438538;28;20233;-74
2021/09/20 17:00:24;;;;;;;3.87;3.47;;;20.50;32.00;;;;;;10437119;28;20229;-74
2021/09/20 17:05:27;;;;;;;4.73;4.20;;;20.50;32.30;;;;;;10438447;28;20217;-73
2021/09/20 17:10:32;;;;;;;4.37;3.97;;;20.50;32.20;;;;;;10439396;28;20228;-74
2021/09/20 17:15:35;;;;;;;4.83;4.10;;;20.40;32.00;;;;;;10444783;28;20249;-74
2021/09/20 17:20:39;;;;;;;4.50;4.20;;;20.40;32.30;;;;;;10442676;28;21264;-73
2021/09/20 17:25:45;;;;;;;4.80;4.30;;;20.40;32.30;;;;;;10434376;28;20233;-74
2021/09/20 17:30:48;;;;;;;4.70;4.30;;;20.40;32.00;;;;;;10431033;28;20236;-74
2021/09/20 17:35:53;;;;;;;4.83;4.43;;;20.30;32.20;;;;;;10448172;28;20322;-74
2021/09/20 17:40:58;;;;;;;5.20;4.37;;;20.20;32.20;;;;;;10444618;28;20231;-74
2021/09/20 17:46:02;;;;;;;6.40;5.80;;;20.20;32.50;;;;;;10438680;28;20231;-73
2021/09/20 17:51:06;;;;;;;7.30;5.10;;;20.20;32.60;;;;;;10443218;28;20255;-73
2021/09/20 17:56:11;;;;;;;6.60;6.03;;;20.10;32.60;;;;;;10439922;28;20233;-73
2021/09/20 18:01:14;;;;;;;6.97;6.30;;;20.00;32.30;;;;;;10444157;28;20322;-73
2021/09/20 18:06:18;;;;;;;6.67;6.00;;;19.90;32.40;;;;;;10451101;28;20684;-73
2021/09/20 18:11:23;;;;;;;6.93;6.30;;;19.80;32.40;;;;;;10445476;28;20236;-73
2021/09/20 18:16:26;;;;;;;6.90;6.30;;;19.60;32.50;;;;;;10446988;28;20235;-73
2021/09/20 18:21:29;;;;;;;6.53;5.93;;;19.60;32.70;;;;;;10438625;28;20236;-72
2021/09/20 18:26:36;;;;;;;5.60;5.10;;;19.50;32.80;;;;;;10441086;28;20237;-74
2021/09/20 18:31:40;;;;;;;6.27;5.70;;;19.40;33.00;;;;;;10448792;28;20247;-72
2021/09/20 18:36:44;;;;;;;6.90;6.20;;;19.40;33.10;;;;;;10446326;28;20209;-74
2021/09/20 18:41:49;;;;;;;5.83;5.33;;;19.30;33.10;;;;;;10443129;28;20229;-73
2021/09/20 18:46:52;;;;;;;6.97;6.47;;;19.20;33.40;;;;;;10440260;28;20229;-72
2021/09/20 18:51:56;;;;;;;6.47;5.87;;;19.20;33.30;;;;;;10439490;28;20229;-73
2021/09/20 18:57:00;;;;;;;6.47;5.70;;;19.10;33.20;;;;;;10442338;28;20225;-73
2021/09/20 19:02:04;;;;;;;6.07;5.47;;;19.10;33.40;;;;;;10442433;28;20227;-72
2021/09/20 19:07:07;;;;;;;6.20;5.60;;;19.00;33.40;;;;;;10438026;28;20228;-72
2021/09/20 19:12:12;;;;;;;6.63;6.03;;;18.90;33.40;;;;;;10442497;28;20300;-73
2021/09/20 19:17:16;;;;;;;6.33;5.73;;;18.90;33.50;;;;;;10441966;28;20241;-72
2021/09/20 19:22:19;;;;;;;5.63;5.13;;;18.80;33.40;;;;;;10442723;28;20240;-72
2021/09/20 19:27:23;;;;;;;6.33;5.83;;;18.70;33.50;;;;;;10438598;28;20275;-74
2021/09/20 19:32:27;;;;;;;6.83;6.13;;;18.70;33.60;;;;;;10443846;28;20240;-73
2021/09/20 19:37:31;;;;;;;11.63;6.37;;;18.70;33.80;;;;;;10440490;28;20221;-73
2021/09/20 19:42:36;;;;;;;6.30;5.70;;;18.70;34.50;;;;;;10435403;28;20924;-73
2021/09/20 19:47:42;;;;;;;8.10;7.40;;;18.60;34.50;;;;;;10436654;28;20232;-73
2021/09/20 19:52:46;;;;;;;7.47;6.77;;;18.60;34.00;;;;;;10436093;28;20575;-73
2021/09/20 19:57:52;;;;;;;6.93;6.33;;;18.50;33.90;;;;;;10440985;28;20239;-74
2021/09/20 20:02:56;;;;;;;7.13;6.53;;;18.50;34.20;;;;;;10434421;28;20243;-73
2021/09/20 20:08:00;;;;;;;7.53;6.83;;;18.40;34.20;;;;;;10436023;28;21012;-72
2021/09/20 20:13:05;;;;;;;7.10;6.50;;;18.40;34.50;;;;;;10437827;28;20719;-72
2021/09/20 20:18:14;;;;;;;7.00;6.07;;;18.40;35.10;;;;;;10437176;28;20315;-72
2021/09/20 20:23:25;;;;;;;5.73;5.33;;;18.30;35.00;;;;;;10438079;28;20275;-72
2021/09/20 20:28:30;;;;;;;6.47;5.97;;;18.30;35.00;;;;;;10432150;28;20225;-72
2021/09/20 20:33:33;;;;;;;6.93;6.37;;;18.20;34.90;;;;;;10435732;28;20239;-73
2021/09/20 20:38:37;;;;;;;7.27;6.67;;;18.20;34.90;;;;;;10432400;28;20594;-73
2021/09/20 20:43:44;;;;;;;6.53;6.00;;;18.10;34.80;;;;;;10429480;28;20260;-72
2021/09/20 20:48:47;;;;;;;6.37;5.80;;;18.10;34.80;;;;;;10433592;28;20229;-73
2021/09/20 20:53:51;;;;;;;6.70;6.10;;;18.00;34.70;;;;;;10440400;28;20249;-73
2021/09/20 20:58:55;;;;;;;8.23;7.43;;;17.90;34.70;;;;;;10442477;28;20235;-73
2021/09/20 21:03:59;;;;;;;7.47;6.87;;;17.80;34.60;;;;;;10442179;28;20236;-73
2021/09/20 21:09:02;;;;;;;7.40;6.80;;;17.70;34.50;;;;;;10445595;28;20225;-75
2021/09/20 21:14:07;;;;;;;7.07;6.47;;;17.60;34.40;;;;;;10444492;28;20312;-72
2021/09/20 21:19:10;;;;;;;7.47;6.77;;;17.50;34.40;;;;;;10441411;28;20967;-73
2021/09/20 21:24:13;;;;;;;7.37;6.77;;;17.60;34.80;;;;;;10440610;28;20231;-73
2021/09/20 21:29:18;;;;;;;7.03;6.37;;;17.60;34.90;;;;;;10438038;28;20225;-73
2021/09/20 21:34:21;;;;;;;6.90;6.30;;;17.60;35.00;;;;;;10444324;28;20220;-73
2021/09/20 21:39:24;;;;;;;6.87;6.27;;;17.60;34.60;;;;;;10440444;28;20713;-73
2021/09/20 21:44:32;;;;;;;6.67;6.13;;;17.60;34.50;;;;;;10438565;28;20728;-73
2021/09/20 21:49:35;;;;;;;7.20;6.60;;;17.50;34.80;;;;;;10441441;28;20323;-73
2021/09/20 21:54:38;;;;;;;7.60;6.80;;;17.50;34.30;;;;;;10442901;28;20221;-72
2021/09/20 21:59:43;;;;;;;7.17;6.57;;;17.50;34.60;;;;;;10440771;28;20251;-72
2021/09/20 22:04:46;;;;;;;7.30;6.60;;;17.40;35.10;;;;;;10440446;28;20991;-72
2021/09/20 22:09:49;;;;;;;6.03;5.53;;;17.40;35.10;;;;;;10442808;28;20237;-73
2021/09/20 22:14:54;;;;;;;5.83;5.43;;;17.40;35.20;;;;;;10440610;28;20221;-73
2021/09/20 22:19:58;;;;;;;6.83;6.33;;;17.30;35.60;;;;;;10429897;28;20237;-73
2021/09/20 22:25:01;;;;;;;7.47;6.77;;;17.40;35.80;;;;;;10432396;28;20705;-72
2021/09/20 22:30:07;;;;;;;6.70;5.93;;;17.40;35.80;;;;;;10433500;28;20236;-73
2021/09/20 22:35:11;;;;;;;6.60;6.03;;;17.30;35.90;;;;;;10440019;28;20243;-73
2021/09/20 22:40:15;;;;;;;7.30;6.60;;;17.40;35.90;;;;;;10435348;28;20243;-73
2021/09/20 22:45:39;;;;;;;6.50;6.00;;;17.40;35.90;;;;;;10420091;28;20225;-72
2021/09/20 22:50:42;;;;;;;6.87;6.37;;;17.30;36.10;;;;;;10425147;28;20233;-72
2021/09/20 22:55:46;;;;;;;6.93;6.33;;;17.30;35.80;;;;;;10424219;28;20728;-73
2021/09/20 23:00:50;;;;;;;6.70;6.20;;;17.20;36.00;;;;;;10423545;28;20363;-73
2021/09/20 23:05:54;;;;;;;5.90;5.37;;;17.20;36.30;;;;;;10422957;28;20233;-73
2021/09/20 23:10:57;;;;;;;6.10;5.60;;;17.20;36.20;;;;;;10424023;28;20233;-73
2021/09/20 23:16:02;;;;;;;6.20;5.60;;;17.20;36.20;;;;;;10422787;28;20716;-73
2021/09/20 23:21:05;;;;;;;5.80;5.30;;;17.20;36.40;;;;;;10422753;28;20333;-72
2021/09/20 23:26:08;;;;;;;6.13;5.50;;;17.10;36.30;;;;;;10422952;28;20717;-72
2021/09/20 23:31:13;;;;;;;6.10;5.50;;;17.10;36.30;;;;;;10425172;28;20856;-72
2021/09/20 23:36:16;;;;;;;8.53;6.20;;;17.10;36.60;;;;;;10423939;28;20242;-73
2021/09/20 23:41:19;;;;;;;5.80;5.23;;;17.10;36.60;;;;;;10424044;28;20228;-73
2021/09/20 23:46:24;;;;;;;6.30;5.80;;;17.10;36.60;;;;;;10427295;28;20224;-75
2021/09/20 23:51:28;;;;;;;7.10;6.40;;;17.10;36.90;;;;;;10425361;28;20681;-72
2021/09/20 23:56:32;;;;;;;7.37;6.60;;;17.10;36.80;;;;;;10421327;28;20233;-72
